createdAt,value
2023-01-17T00:00:44.475Z,-65
2023-01-17T00:06:04.171Z,-65
2023-01-17T00:11:05.401Z,-66
2023-01-17T00:16:06.615Z,-66
2023-01-17T00:21:26.710Z,-65
2023-01-17T00:26:27.874Z,-65
2023-01-17T00:31:29.017Z,-66
2023-01-17T00:36:30.207Z,-66
2023-01-17T00:41:31.320Z,-65
2023-01-17T00:46:51.094Z,-66
2023-01-17T00:52:10.840Z,-65
2023-01-17T00:57:30.601Z,-65
2023-01-17T01:02:50.302Z,-65
2023-01-17T01:08:10.243Z,-65
2023-01-17T01:13:30.114Z,-65
2023-01-17T01:18:49.866Z,-65
2023-01-17T01:24:09.652Z,-65
2023-01-17T01:29:29.485Z,-65
2023-01-17T01:34:30.732Z,-65
2023-01-17T01:39:31.878Z,-65
2023-01-17T01:44:33.154Z,-65
2023-01-17T01:49:34.309Z,-65
2023-01-17T01:54:35.449Z,-65
2023-01-17T01:59:36.636Z,-65
2023-01-17T02:04:37.907Z,-65
2023-01-17T02:09:39.112Z,-65
2023-01-17T02:14:40.315Z,-65
2023-01-17T02:19:41.467Z,-65
2023-01-17T02:24:42.608Z,-65
2023-01-17T02:29:43.764Z,-65
2023-01-17T02:34:44.900Z,-65
2023-01-17T02:39:46.112Z,-65
2023-01-17T02:44:47.363Z,-65
2023-01-17T02:49:48.536Z,-65
2023-01-17T02:54:49.752Z,-65
2023-01-17T02:59:50.885Z,-65
2023-01-17T03:04:52.090Z,-65
2023-01-17T03:09:53.569Z,-65
2023-01-17T03:14:54.711Z,-65
2023-01-17T03:19:55.932Z,-65
2023-01-17T03:24:57.063Z,-65
2023-01-17T03:29:58.312Z,-65
2023-01-17T03:34:59.528Z,-65
2023-01-17T03:40:00.830Z,-65
2023-01-17T03:45:02.052Z,-65
2023-01-17T03:50:03.230Z,-65
2023-01-17T03:55:04.460Z,-65
2023-01-17T04:00:05.635Z,-65
2023-01-17T04:05:06.809Z,-65
2023-01-17T04:10:08.006Z,-65
2023-01-17T04:15:09.211Z,-65
2023-01-17T04:20:10.403Z,-65
2023-01-17T04:25:11.625Z,-65
2023-01-17T04:30:12.811Z,-65
2023-01-17T04:35:14.014Z,-65
2023-01-17T04:40:15.272Z,-65
2023-01-17T04:45:16.714Z,-65
2023-01-17T04:50:18.145Z,-65
2023-01-17T04:55:19.350Z,-65
2023-01-17T05:00:22.699Z,-65
2023-01-17T05:05:25.149Z,-65
2023-01-17T05:10:26.328Z,-65
2023-01-17T05:15:27.641Z,-65
2023-01-17T05:20:28.918Z,-65
2023-01-17T05:25:30.084Z,-65
2023-01-17T05:30:31.223Z,-65
2023-01-17T05:35:35.510Z,-65
2023-01-17T05:40:36.753Z,-70
2023-01-17T05:45:38.024Z,-65
2023-01-17T05:50:39.225Z,-66
2023-01-17T05:55:40.392Z,-66
2023-01-17T06:00:41.664Z,-66
2023-01-17T06:05:43.182Z,-65
2023-01-17T06:10:44.395Z,-65
2023-01-17T06:15:45.631Z,-65
2023-01-17T06:20:46.882Z,-66
2023-01-17T06:25:48.055Z,-66
2023-01-17T06:30:49.293Z,-66
2023-01-17T06:35:50.469Z,-66
2023-01-17T06:40:51.709Z,-65
2023-01-17T06:45:52.890Z,-66
2023-01-17T06:50:54.019Z,-66
2023-01-17T06:55:55.196Z,-66
2023-01-17T07:00:56.472Z,-65
2023-01-17T07:05:57.732Z,-65
2023-01-17T07:10:58.949Z,-65
2023-01-17T07:16:00.248Z,-66
2023-01-17T07:21:01.468Z,-66
2023-01-17T07:26:02.693Z,-65
2023-01-17T07:31:03.854Z,-65
2023-01-17T07:36:05.127Z,-65
2023-01-17T07:41:06.287Z,-65
2023-01-17T07:46:07.991Z,-66
2023-01-17T07:51:09.175Z,-65
2023-01-17T07:56:10.405Z,-65
2023-01-17T08:01:11.744Z,-65
2023-01-17T08:06:13.000Z,-66
2023-01-17T08:11:14.164Z,-65
2023-01-17T08:16:15.493Z,-65
2023-01-17T08:21:16.795Z,-65
2023-01-17T08:26:22.288Z,-65
2023-01-17T08:31:23.638Z,-65
2023-01-17T08:36:28.552Z,-65
2023-01-17T08:41:29.868Z,-65
2023-01-17T08:46:32.819Z,-65
2023-01-17T08:51:34.837Z,-66
2023-01-17T08:56:35.981Z,-65
2023-01-17T09:01:40.737Z,-65
2023-01-17T09:06:42.168Z,-65
2023-01-17T09:11:43.347Z,-66
2023-01-17T09:16:44.569Z,-65
2023-01-17T09:21:45.781Z,-65
2023-01-17T09:26:46.996Z,-65
2023-01-17T09:31:48.289Z,-65
2023-01-17T09:36:49.498Z,-65
2023-01-17T09:41:50.681Z,-66
2023-01-17T09:46:51.863Z,-65
2023-01-17T09:51:53.035Z,-65
2023-01-17T09:56:54.512Z,-69
2023-01-17T10:01:55.867Z,-66
2023-01-17T10:06:57.142Z,-66
2023-01-17T10:11:58.610Z,-65
2023-01-17T10:16:59.852Z,-66
2023-01-17T10:22:02.191Z,-65
2023-01-17T10:27:03.376Z,-65
2023-01-17T10:32:04.588Z,-65
2023-01-17T10:37:05.746Z,-65
2023-01-17T10:42:06.946Z,-65
2023-01-17T10:47:08.160Z,-65
2023-01-17T10:52:09.378Z,-65
2023-01-17T10:57:10.560Z,-65
2023-01-17T11:02:11.764Z,-65
2023-01-17T11:07:13.194Z,-66
2023-01-17T11:12:14.435Z,-65
2023-01-17T11:17:15.982Z,-65
2023-01-17T11:22:17.117Z,-65
2023-01-17T11:27:18.307Z,-66
2023-01-17T11:32:19.431Z,-66
2023-01-17T11:37:20.605Z,-65
2023-01-17T11:42:21.927Z,-66
2023-01-17T11:47:23.076Z,-66
2023-01-17T11:52:24.423Z,-66
2023-01-17T11:57:25.743Z,-66
2023-01-17T12:02:32.006Z,-66
2023-01-17T12:07:33.259Z,-66
2023-01-17T12:12:53.293Z,-66
2023-01-17T12:17:54.445Z,-66
2023-01-17T12:22:56.379Z,-68
2023-01-17T12:27:57.866Z,-66
2023-01-17T12:32:59.061Z,-66
2023-01-17T12:38:04.904Z,-70
2023-01-17T12:43:06.519Z,-67
2023-01-17T12:48:07.885Z,-71
2023-01-17T12:53:09.141Z,-71
2023-01-17T12:58:10.320Z,-71
2023-01-17T13:03:11.525Z,-71
2023-01-17T13:08:12.831Z,-72
2023-01-17T13:13:14.098Z,-72
2023-01-17T13:18:15.545Z,-71
2023-01-17T13:23:16.808Z,-71
2023-01-17T13:28:18.072Z,-71
2023-01-17T13:33:19.268Z,-70
2023-01-17T13:38:20.473Z,-70
2023-01-17T13:43:21.903Z,-69
2023-01-17T13:48:23.253Z,-71
2023-01-17T13:53:24.412Z,-70
2023-01-17T13:58:25.624Z,-69
2023-01-17T14:03:26.830Z,-71
2023-01-17T14:08:28.098Z,-71
2023-01-17T14:13:29.326Z,-72
2023-01-17T14:18:30.501Z,-71
2023-01-17T14:23:31.695Z,-71
2023-01-17T14:28:32.913Z,-65
2023-01-17T14:33:34.082Z,-66
2023-01-17T14:38:35.826Z,-65
2023-01-17T14:43:37.039Z,-66
2023-01-17T14:48:38.172Z,-65
2023-01-17T14:53:39.442Z,-65
2023-01-17T14:58:41.335Z,-65
2023-01-17T15:03:42.491Z,-65
2023-01-17T15:08:43.671Z,-65
2023-01-17T15:13:45.370Z,-65
2023-01-17T15:18:46.635Z,-65
2023-01-17T15:23:47.770Z,-65
2023-01-17T15:28:49.032Z,-65
2023-01-17T15:33:50.252Z,-65
2023-01-17T15:38:51.527Z,-65
2023-01-17T15:43:57.439Z,-65
2023-01-17T15:48:58.628Z,-65
2023-01-17T15:53:59.812Z,-65
2023-01-17T15:59:00.941Z,-65
2023-01-17T16:04:02.141Z,-69
2023-01-17T16:09:04.684Z,-69
2023-01-17T16:14:07.857Z,-65
2023-01-17T16:19:09.078Z,-67
2023-01-17T16:24:10.460Z,-66
2023-01-17T16:29:11.707Z,-67
2023-01-17T16:34:12.969Z,-66
2023-01-17T16:39:14.876Z,-66
2023-01-17T16:44:16.746Z,-68
2023-01-17T16:49:18.602Z,-67
2023-01-17T16:54:19.856Z,-68
2023-01-17T16:59:21.205Z,-66
2023-01-17T17:04:22.504Z,-68
2023-01-17T17:09:23.722Z,-68
2023-01-17T17:14:24.883Z,-69
2023-01-17T17:19:29.568Z,-67
2023-01-17T17:24:30.704Z,-65
2023-01-17T17:29:31.904Z,-66
2023-01-17T17:34:34.847Z,-65
2023-01-17T17:39:35.973Z,-65
2023-01-17T17:44:37.164Z,-65
2023-01-17T17:49:38.302Z,-65
2023-01-17T17:54:39.484Z,-65
2023-01-17T17:59:40.636Z,-65
2023-01-17T18:04:41.802Z,-64
2023-01-17T18:09:43.064Z,-65
2023-01-17T18:14:44.268Z,-64
2023-01-17T18:19:46.134Z,-64
2023-01-17T18:24:47.372Z,-64
2023-01-17T18:29:49.302Z,-64
2023-01-17T18:34:51.455Z,-64
2023-01-17T18:39:52.791Z,-64
2023-01-17T18:44:54.024Z,-64
2023-01-17T18:49:55.239Z,-64
2023-01-17T18:54:56.412Z,-64
2023-01-17T18:59:57.703Z,-64
2023-01-17T19:04:58.878Z,-64
2023-01-17T19:10:00.037Z,-65
2023-01-17T19:15:01.172Z,-64
2023-01-17T19:20:02.302Z,-64
2023-01-17T19:25:03.528Z,-64
2023-01-17T19:30:04.741Z,-65
2023-01-17T19:35:06.099Z,-64
2023-01-17T19:40:08.283Z,-64
2023-01-17T19:45:09.702Z,-64
2023-01-17T19:50:12.118Z,-64
2023-01-17T19:55:13.297Z,-64
2023-01-17T20:00:14.622Z,-64
2023-01-17T20:05:15.807Z,-64
2023-01-17T20:10:17.546Z,-64
2023-01-17T20:15:18.699Z,-64
2023-01-17T20:20:19.977Z,-65
2023-01-17T20:25:21.182Z,-66
2023-01-17T20:30:24.442Z,-64
2023-01-17T20:35:25.702Z,-64
2023-01-17T20:40:26.951Z,-66
2023-01-17T20:45:28.741Z,-65
2023-01-17T20:50:29.974Z,-64
2023-01-17T20:55:31.208Z,-64
2023-01-17T21:00:32.416Z,-65
2023-01-17T21:05:33.569Z,-64
2023-01-17T21:10:34.736Z,-64
2023-01-17T21:15:35.860Z,-64
2023-01-17T21:20:37.095Z,-64
2023-01-17T21:25:38.401Z,-67
2023-01-17T21:30:39.599Z,-64
2023-01-17T21:35:40.791Z,-64
2023-01-17T21:40:42.277Z,-64
2023-01-17T21:45:43.497Z,-64
2023-01-17T21:50:45.265Z,-67
2023-01-17T21:56:05.292Z,-64
2023-01-17T22:01:15.845Z,-64
2023-01-17T22:06:17.186Z,-64
2023-01-17T22:11:18.375Z,-64
2023-01-17T22:16:19.590Z,-64
2023-01-17T22:21:20.785Z,-63
2023-01-17T22:26:21.937Z,-63
2023-01-17T22:31:23.316Z,-64
2023-01-17T22:36:24.574Z,-63
2023-01-17T22:41:27.604Z,-63
2023-01-17T22:46:28.771Z,-63
2023-01-17T22:51:30.021Z,-63
2023-01-17T22:56:31.197Z,-63
2023-01-17T23:01:32.739Z,-63
2023-01-17T23:06:33.934Z,-63
2023-01-17T23:11:44.877Z,-63
2023-01-17T23:17:04.917Z,-63
2023-01-17T23:22:21.067Z,-63
2023-01-17T23:27:41.188Z,-63
2023-01-17T23:32:42.323Z,-63
2023-01-17T23:38:02.019Z,-63
2023-01-17T23:43:21.675Z,-63
2023-01-17T23:48:24.624Z,-63
2023-01-17T23:53:26.071Z,-63
2023-01-17T23:58:27.208Z,-63
